createdAt,value
2019-03-21T00:00:25.873Z,32.60
2019-03-21T00:01:25.862Z,38.90
2019-03-21T00:02:25.841Z,33.40
2019-03-21T00:03:25.869Z,33.00
2019-03-21T00:04:25.822Z,36.40
2019-03-21T00:05:25.826Z,31.70
2019-03-21T00:06:25.804Z,34.00
2019-03-21T00:07:25.794Z,33.80
2019-03-21T00:08:25.800Z,33.40
2019-03-21T00:09:25.783Z,33.90
2019-03-21T00:10:25.756Z,32.80
2019-03-21T00:11:25.743Z,37.00
2019-03-21T00:12:25.737Z,33.50
2019-03-21T00:13:25.766Z,31.90
2019-03-21T00:14:25.710Z,33.50
2019-03-21T00:15:25.729Z,36.90
2019-03-21T00:16:25.700Z,32.20
2019-03-21T00:17:25.684Z,33.90
2019-03-21T00:18:25.704Z,34.30
2019-03-21T00:19:25.666Z,36.80
2019-03-21T00:20:25.653Z,33.50
2019-03-21T00:21:25.636Z,36.00
2019-03-21T00:22:25.633Z,37.30
2019-03-21T00:23:25.650Z,36.00
2019-03-21T00:24:25.607Z,35.70
2019-03-21T00:25:25.592Z,36.50
2019-03-21T00:26:25.576Z,36.50
2019-03-21T00:27:25.577Z,37.00
2019-03-21T00:28:25.570Z,32.40
2019-03-21T00:29:25.562Z,36.60
2019-03-21T00:30:25.540Z,33.70
2019-03-21T00:31:25.531Z,34.90
2019-03-21T00:32:25.516Z,35.80
2019-03-21T00:33:25.534Z,38.00
2019-03-21T00:34:25.543Z,35.40
2019-03-21T00:35:25.481Z,36.20
2019-03-21T00:36:25.484Z,33.70
2019-03-21T00:37:25.463Z,37.90
2019-03-21T00:38:25.458Z,35.00
2019-03-21T00:39:32.699Z,37.90
2019-03-21T00:40:26.427Z,37.70
2019-03-21T00:41:25.410Z,34.90
2019-03-21T00:42:25.412Z,39.20
2019-03-21T00:43:25.393Z,34.20
2019-03-21T00:44:25.405Z,40.40
2019-03-21T00:45:25.375Z,39.90
2019-03-21T00:46:25.366Z,35.60
2019-03-21T00:47:25.347Z,39.10
2019-03-21T00:48:25.335Z,34.60
2019-03-21T00:49:25.347Z,38.90
2019-03-21T00:50:25.330Z,38.20
2019-03-21T00:51:25.307Z,36.90
2019-03-21T00:52:25.303Z,39.10
2019-03-21T00:53:25.281Z,38.40
2019-03-21T00:54:25.311Z,39.40
2019-03-21T00:55:25.260Z,36.90
2019-03-21T00:56:25.262Z,39.60
2019-03-21T00:57:25.249Z,42.90
2019-03-21T00:58:25.232Z,41.00
2019-03-21T00:59:25.234Z,37.40
2019-03-21T01:00:25.203Z,35.60
2019-03-21T01:01:25.183Z,37.30
2019-03-21T01:02:25.191Z,39.40
2019-03-21T01:03:25.169Z,36.80
2019-03-21T01:04:25.183Z,40.10
2019-03-21T01:05:25.157Z,38.90
2019-03-21T01:06:25.142Z,39.20
2019-03-21T01:07:25.137Z,40.70
2019-03-21T01:08:25.114Z,40.50
2019-03-21T01:09:25.131Z,40.50
2019-03-21T01:10:25.090Z,40.30
2019-03-21T01:11:25.095Z,37.70
2019-03-21T01:12:25.072Z,42.20
2019-03-21T01:13:25.068Z,35.40
2019-03-21T01:14:29.766Z,40.80
2019-03-21T01:15:26.032Z,39.80
2019-03-21T01:16:25.039Z,42.90
2019-03-21T01:17:25.017Z,41.90
2019-03-21T01:18:25.005Z,37.50
2019-03-21T01:19:25.017Z,43.10
2019-03-21T01:20:25.034Z,41.60
2019-03-21T01:21:24.965Z,39.80
2019-03-21T01:22:24.957Z,39.60
2019-03-21T01:23:24.960Z,42.50
2019-03-21T01:24:24.943Z,38.70
2019-03-21T01:25:24.944Z,39.90
2019-03-21T01:26:24.911Z,41.50
2019-03-21T01:27:24.902Z,41.80
2019-03-21T01:28:24.894Z,42.20
2019-03-21T01:29:24.886Z,38.60
2019-03-21T01:30:24.883Z,44.40
2019-03-21T01:31:24.852Z,38.60
2019-03-21T01:32:24.850Z,43.50
2019-03-21T01:33:24.843Z,42.70
2019-03-21T01:34:24.835Z,39.30
2019-03-21T01:35:24.843Z,42.40
2019-03-21T01:36:24.802Z,44.40
2019-03-21T01:37:24.782Z,42.70
2019-03-21T01:38:24.780Z,41.20
2019-03-21T01:39:24.778Z,46.10
2019-03-21T01:40:24.815Z,41.70
2019-03-21T01:41:24.748Z,45.70
2019-03-21T01:42:24.746Z,40.60
2019-03-21T01:43:24.725Z,45.70
2019-03-21T01:44:24.722Z,44.80
2019-03-21T01:45:24.723Z,42.60
2019-03-21T01:46:24.710Z,46.90
2019-03-21T01:47:24.701Z,47.70
2019-03-21T01:48:24.674Z,45.10
2019-03-21T01:49:24.666Z,45.80
2019-03-21T01:50:24.671Z,46.30
2019-03-21T01:51:24.664Z,42.90
2019-03-21T01:52:24.630Z,48.00
2019-03-21T01:53:24.611Z,43.80
2019-03-21T01:54:24.627Z,42.80
2019-03-21T01:55:24.613Z,45.30
2019-03-21T01:56:24.582Z,49.40
2019-03-21T01:57:24.574Z,46.60
2019-03-21T01:58:24.557Z,46.20
2019-03-21T01:59:24.554Z,46.50
2019-03-21T02:00:24.550Z,45.60
2019-03-21T02:01:24.526Z,49.00
2019-03-21T02:02:24.514Z,47.00
2019-03-21T02:03:24.509Z,52.50
2019-03-21T02:04:24.491Z,45.50
2019-03-21T02:05:24.502Z,46.30
2019-03-21T02:06:24.467Z,48.50
2019-03-21T02:07:24.470Z,47.10
2019-03-21T02:08:24.445Z,48.40
2019-03-21T02:09:24.455Z,46.90
2019-03-21T02:10:24.452Z,47.40
2019-03-21T02:11:24.410Z,47.60
2019-03-21T02:12:24.407Z,49.10
2019-03-21T02:13:24.394Z,46.50
2019-03-21T02:14:24.384Z,44.50
2019-03-21T02:15:25.040Z,46.60
2019-03-21T02:16:24.350Z,46.70
2019-03-21T02:17:24.352Z,46.70
2019-03-21T02:18:24.352Z,44.70
2019-03-21T02:19:24.325Z,46.00
2019-03-21T02:20:24.324Z,53.00
2019-03-21T02:21:24.329Z,46.20
2019-03-21T02:22:24.291Z,48.80
2019-03-21T02:23:24.285Z,47.90
2019-03-21T02:24:24.279Z,46.20
2019-03-21T02:25:24.268Z,48.20
2019-03-21T02:26:24.279Z,47.80
2019-03-21T02:27:24.238Z,51.30
2019-03-21T02:28:24.221Z,49.40
2019-03-21T02:29:24.229Z,50.60
2019-03-21T02:30:24.207Z,51.70
2019-03-21T02:31:24.221Z,45.50
2019-03-21T02:32:24.199Z,46.00
2019-03-21T02:33:24.170Z,47.60
2019-03-21T02:34:24.163Z,50.80
2019-03-21T02:35:24.148Z,48.40
2019-03-21T02:36:24.177Z,45.00
2019-03-21T02:37:24.126Z,49.60
2019-03-21T02:38:24.123Z,51.20
2019-03-21T02:39:24.105Z,47.90
2019-03-21T02:40:24.100Z,48.70
2019-03-21T02:41:25.753Z,53.60
2019-03-21T02:42:24.083Z,49.20
2019-03-21T02:43:24.062Z,53.70
2019-03-21T02:44:24.050Z,50.50
2019-03-21T02:45:24.035Z,49.70
2019-03-21T02:46:24.038Z,52.40
2019-03-21T02:47:24.026Z,49.50
2019-03-21T02:48:24.012Z,56.10
2019-03-21T02:49:23.999Z,47.20
2019-03-21T02:50:24.005Z,54.80
2019-03-21T02:51:24.004Z,51.90
2019-03-21T02:52:23.969Z,54.00
2019-03-21T02:53:23.963Z,52.30
2019-03-21T02:54:23.945Z,52.80
2019-03-21T02:55:23.929Z,54.40
2019-03-21T02:56:23.936Z,50.40
2019-03-21T02:57:23.927Z,55.60
2019-03-21T02:58:23.917Z,56.40
2019-03-21T02:59:23.889Z,53.60
2019-03-21T03:00:23.876Z,50.40
2019-03-21T03:01:23.896Z,49.40
2019-03-21T03:02:23.847Z,51.30
2019-03-21T03:03:23.848Z,53.40
2019-03-21T03:04:23.841Z,54.80
2019-03-21T03:05:23.818Z,56.60
2019-03-21T03:06:23.850Z,54.50
2019-03-21T03:07:23.809Z,54.70
2019-03-21T03:08:23.789Z,54.50
2019-03-21T03:09:23.762Z,56.40
2019-03-21T03:10:23.765Z,52.60
2019-03-21T03:11:23.756Z,56.00
2019-03-21T03:12:23.786Z,51.50
2019-03-21T03:13:23.773Z,49.80
2019-03-21T03:14:23.717Z,48.80
2019-03-21T03:15:23.763Z,52.90
2019-03-21T03:16:23.707Z,49.20
2019-03-21T03:17:23.711Z,53.40
2019-03-21T03:18:23.676Z,49.90
2019-03-21T03:19:23.655Z,50.90
2019-03-21T03:20:23.660Z,54.80
2019-03-21T03:21:23.646Z,55.00
2019-03-21T03:22:23.654Z,52.70
2019-03-21T03:23:23.621Z,55.00
2019-03-21T03:24:23.601Z,51.50
2019-03-21T03:25:23.609Z,49.90
2019-03-21T03:26:23.595Z,53.60
2019-03-21T03:27:23.613Z,49.10
2019-03-21T03:28:23.561Z,51.50
2019-03-21T03:29:23.556Z,53.40
2019-03-21T03:30:23.540Z,49.70
2019-03-21T03:31:23.536Z,47.60
2019-03-21T03:32:23.535Z,50.80
2019-03-21T03:33:23.516Z,54.10
2019-03-21T03:34:23.512Z,54.40
2019-03-21T03:35:23.493Z,55.00
2019-03-21T03:36:23.495Z,53.60
2019-03-21T03:37:23.477Z,52.90
2019-03-21T03:38:23.457Z,49.70
2019-03-21T03:39:23.437Z,51.00
2019-03-21T03:40:23.438Z,49.00
2019-03-21T03:41:23.419Z,50.50
2019-03-21T03:42:23.425Z,52.20
2019-03-21T03:43:23.402Z,49.80
2019-03-21T03:44:23.384Z,51.10
2019-03-21T03:45:36.739Z,52.40
2019-03-21T03:46:24.366Z,49.10
2019-03-21T03:47:23.354Z,48.70
2019-03-21T03:48:23.360Z,50.30
2019-03-21T03:49:23.321Z,50.10
2019-03-21T03:50:23.326Z,46.50
2019-03-21T03:51:23.305Z,49.30
2019-03-21T03:52:23.284Z,49.50
2019-03-21T03:53:23.310Z,51.50
2019-03-21T03:54:23.277Z,47.80
2019-03-21T03:55:23.264Z,50.00
2019-03-21T03:56:23.250Z,49.10
2019-03-21T03:57:23.241Z,45.70
2019-03-21T03:58:23.257Z,48.20
2019-03-21T03:59:23.217Z,45.80
2019-03-21T04:00:23.225Z,50.40
2019-03-21T04:01:23.205Z,49.10
2019-03-21T04:02:23.175Z,44.70
2019-03-21T04:03:23.184Z,50.80
2019-03-21T04:04:23.165Z,48.50
2019-03-21T04:05:23.149Z,47.20
2019-03-21T04:06:23.139Z,49.90
2019-03-21T04:07:23.133Z,46.70
2019-03-21T04:08:23.123Z,46.30
2019-03-21T04:09:23.107Z,45.50
2019-03-21T04:10:23.095Z,49.90
2019-03-21T04:11:23.188Z,46.50
2019-03-21T04:12:23.083Z,49.80
2019-03-21T04:13:23.096Z,48.20
2019-03-21T04:14:23.041Z,51.40
2019-03-21T04:15:23.058Z,49.00
2019-03-21T04:16:23.034Z,49.10
2019-03-21T04:17:23.037Z,49.50
2019-03-21T04:18:23.033Z,49.40
2019-03-21T04:19:22.994Z,49.90
2019-03-21T04:20:22.973Z,49.80
2019-03-21T04:21:22.968Z,52.40
2019-03-21T04:22:22.971Z,48.70
2019-03-21T04:23:22.963Z,50.50
2019-03-21T04:24:22.940Z,51.50
2019-03-21T04:25:22.930Z,48.20
2019-03-21T04:26:22.918Z,48.70
2019-03-21T04:27:22.920Z,50.90
2019-03-21T04:28:22.932Z,48.80
2019-03-21T04:29:22.906Z,47.40
2019-03-21T04:30:22.875Z,50.10
2019-03-21T04:31:22.861Z,50.50
2019-03-21T04:32:22.848Z,48.90
2019-03-21T04:33:23.181Z,51.70
2019-03-21T04:34:22.836Z,48.40
2019-03-21T04:35:22.814Z,50.70
2019-03-21T04:36:22.807Z,47.30
2019-03-21T04:37:22.789Z,50.30
2019-03-21T04:38:22.787Z,50.40
2019-03-21T04:39:22.780Z,50.00
2019-03-21T04:40:22.757Z,46.70
2019-03-21T04:41:22.748Z,48.00
2019-03-21T04:42:22.748Z,50.90
2019-03-21T04:43:22.732Z,47.60
2019-03-21T04:44:22.735Z,50.50
2019-03-21T04:45:22.712Z,51.30
2019-03-21T04:46:22.704Z,45.80
2019-03-21T04:47:22.688Z,49.90
2019-03-21T04:48:22.665Z,44.00
2019-03-21T04:49:22.677Z,46.50
2019-03-21T04:50:22.642Z,49.90
2019-03-21T04:51:22.628Z,48.30
2019-03-21T04:52:22.629Z,46.10
2019-03-21T04:53:22.640Z,48.30
2019-03-21T04:54:22.612Z,48.90
2019-03-21T04:55:22.586Z,47.70
2019-03-21T04:56:22.586Z,48.90
2019-03-21T04:57:22.570Z,46.40
2019-03-21T04:58:22.572Z,46.50
2019-03-21T04:59:22.562Z,46.30
2019-03-21T05:00:22.536Z,47.30
2019-03-21T05:01:22.525Z,46.40
2019-03-21T05:02:22.513Z,49.70
2019-03-21T05:03:22.503Z,45.20
2019-03-21T05:04:22.520Z,47.00
2019-03-21T05:05:22.482Z,47.80
2019-03-21T05:06:22.494Z,44.50
2019-03-21T05:07:22.465Z,46.30
2019-03-21T05:08:22.447Z,46.30
2019-03-21T05:09:22.452Z,43.90
2019-03-21T05:10:22.426Z,44.70
2019-03-21T05:11:22.411Z,46.50
2019-03-21T05:12:22.401Z,44.40
2019-03-21T05:13:22.397Z,48.30
2019-03-21T05:14:22.393Z,46.30
2019-03-21T05:15:22.384Z,46.60
2019-03-21T05:16:22.358Z,49.80
2019-03-21T05:17:22.347Z,45.60
2019-03-21T05:18:22.334Z,46.60
2019-03-21T05:19:22.356Z,45.20
2019-03-21T05:20:22.313Z,48.60
2019-03-21T05:21:22.313Z,46.60
2019-03-21T05:22:22.296Z,48.20
2019-03-21T05:23:22.278Z,45.30
2019-03-21T05:24:22.309Z,44.50
2019-03-21T05:25:22.265Z,45.30
2019-03-21T05:26:22.247Z,46.70
2019-03-21T05:27:22.244Z,43.90
2019-03-21T05:28:22.227Z,44.90
2019-03-21T05:29:22.208Z,47.60
2019-03-21T05:30:22.228Z,43.70
2019-03-21T05:31:22.190Z,49.10
2019-03-21T05:32:22.181Z,50.00
2019-03-21T05:33:22.185Z,46.60
2019-03-21T05:34:22.154Z,45.30
2019-03-21T05:35:22.167Z,49.80
2019-03-21T05:36:22.139Z,44.10
2019-03-21T05:37:22.125Z,45.80
2019-03-21T05:38:22.117Z,48.10
2019-03-21T05:39:22.106Z,47.80
2019-03-21T05:40:22.119Z,49.20
2019-03-21T05:41:22.081Z,50.30
2019-03-21T05:42:22.064Z,49.90
2019-03-21T05:43:22.060Z,52.20
2019-03-21T05:44:22.072Z,46.00
2019-03-21T05:45:22.066Z,47.90
2019-03-21T05:46:26.620Z,50.50
2019-03-21T05:47:23.026Z,47.60
2019-03-21T05:48:22.018Z,51.40
2019-03-21T05:49:21.988Z,50.40
2019-03-21T05:50:21.993Z,47.40
2019-03-21T05:51:21.967Z,48.60
2019-03-21T05:52:21.962Z,51.30
2019-03-21T05:53:21.976Z,49.40
2019-03-21T05:54:21.941Z,47.90
2019-03-21T05:55:21.944Z,51.20
2019-03-21T05:56:21.931Z,47.60
2019-03-21T05:57:21.900Z,47.30
2019-03-21T05:58:21.895Z,47.70
2019-03-21T05:59:21.888Z,48.10
2019-03-21T06:00:21.889Z,50.40
2019-03-21T06:01:21.877Z,49.10
2019-03-21T06:02:21.849Z,47.70
2019-03-21T06:03:21.836Z,46.40
2019-03-21T06:04:21.826Z,46.00
2019-03-21T06:05:21.833Z,49.90
2019-03-21T06:06:21.810Z,52.20
2019-03-21T06:07:21.796Z,45.20
2019-03-21T06:08:21.791Z,50.60
2019-03-21T06:09:21.792Z,47.30
2019-03-21T06:10:21.789Z,50.10
2019-03-21T06:11:21.754Z,46.30
2019-03-21T06:12:21.747Z,45.80
2019-03-21T06:13:21.731Z,46.20
2019-03-21T06:14:21.715Z,46.50
2019-03-21T06:15:21.745Z,46.30
2019-03-21T06:16:21.685Z,45.60
2019-03-21T06:17:21.689Z,46.00
2019-03-21T06:18:21.696Z,46.30
2019-03-21T06:19:21.651Z,46.70
2019-03-21T06:20:21.648Z,44.70
2019-03-21T06:21:21.670Z,45.90
2019-03-21T06:22:21.628Z,46.40
2019-03-21T06:23:21.622Z,48.50
2019-03-21T06:24:21.618Z,47.70
2019-03-21T06:25:21.598Z,46.30
2019-03-21T06:26:21.602Z,47.00
2019-03-21T06:27:21.573Z,44.80
2019-03-21T06:28:21.551Z,48.20
2019-03-21T06:29:21.547Z,49.00
2019-03-21T06:30:21.551Z,46.80
2019-03-21T06:31:21.542Z,45.30
2019-03-21T06:32:21.510Z,45.00
2019-03-21T06:33:21.537Z,47.10
2019-03-21T06:34:21.490Z,49.20
2019-03-21T06:35:21.496Z,47.10
2019-03-21T06:36:21.491Z,46.80
2019-03-21T06:37:21.467Z,47.30
2019-03-21T06:38:21.447Z,43.60
2019-03-21T06:39:21.443Z,47.10
2019-03-21T06:40:21.429Z,43.90
2019-03-21T06:41:21.435Z,46.20
2019-03-21T06:42:21.417Z,44.80
2019-03-21T06:43:21.417Z,41.10
2019-03-21T06:44:21.380Z,42.10
2019-03-21T06:45:21.365Z,41.60
2019-03-21T06:46:21.379Z,48.20
2019-03-21T06:47:21.348Z,41.40
2019-03-21T06:48:21.346Z,45.00
2019-03-21T06:49:21.380Z,46.40
2019-03-21T06:50:21.339Z,43.40
2019-03-21T06:51:21.357Z,47.40
2019-03-21T06:52:21.291Z,43.80
2019-03-21T06:53:21.277Z,46.80
2019-03-21T06:54:21.279Z,44.10
2019-03-21T06:55:21.255Z,45.60
2019-03-21T06:56:21.276Z,45.60
2019-03-21T06:57:21.227Z,45.30
2019-03-21T06:58:21.220Z,48.90
2019-03-21T06:59:21.214Z,43.80
2019-03-21T07:00:21.196Z,45.40
2019-03-21T07:01:21.209Z,46.20
2019-03-21T07:02:21.185Z,41.60
2019-03-21T07:03:21.182Z,47.30
2019-03-21T07:04:21.165Z,44.80
2019-03-21T07:05:21.159Z,45.70
2019-03-21T07:06:21.139Z,45.90
2019-03-21T07:07:21.135Z,43.30
2019-03-21T07:08:21.118Z,46.00
2019-03-21T07:09:21.094Z,43.80
2019-03-21T07:10:21.106Z,43.80
2019-03-21T07:11:21.084Z,45.50
2019-03-21T07:12:21.088Z,48.30
2019-03-21T07:13:21.054Z,43.40
2019-03-21T07:14:21.051Z,47.50
2019-03-21T07:15:21.030Z,42.90
2019-03-21T07:16:21.050Z,44.90
2019-03-21T07:17:22.889Z,43.80
2019-03-21T07:18:21.011Z,39.70
2019-03-21T07:19:20.996Z,43.20
2019-03-21T07:20:20.984Z,44.40
2019-03-21T07:21:20.969Z,46.40
2019-03-21T07:22:20.977Z,43.30
2019-03-21T07:23:20.949Z,45.60
2019-03-21T07:24:20.935Z,39.80
2019-03-21T07:25:20.922Z,41.60
2019-03-21T07:26:20.907Z,43.90
2019-03-21T07:27:20.930Z,42.30
2019-03-21T07:28:20.886Z,47.40
2019-03-21T07:29:20.880Z,45.20
2019-03-21T07:30:20.865Z,43.30
2019-03-21T07:31:20.865Z,46.80
2019-03-21T07:32:20.892Z,45.40
2019-03-21T07:33:20.830Z,44.50
2019-03-21T07:34:20.821Z,42.40
2019-03-21T07:35:20.821Z,45.80
2019-03-21T07:36:20.798Z,44.90
2019-03-21T07:37:20.806Z,41.80
2019-03-21T07:38:20.775Z,44.30
2019-03-21T07:39:20.773Z,44.50
2019-03-21T07:40:20.754Z,47.10
2019-03-21T07:41:20.742Z,43.40
2019-03-21T07:42:20.764Z,46.80
2019-03-21T07:43:22.300Z,46.40
2019-03-21T07:44:20.746Z,45.30
2019-03-21T07:45:20.705Z,44.70
2019-03-21T07:46:20.693Z,47.70
2019-03-21T07:47:20.709Z,45.70
2019-03-21T07:48:20.668Z,44.90
2019-03-21T07:49:20.667Z,41.90
2019-03-21T07:50:20.674Z,42.40
2019-03-21T07:51:20.678Z,48.50
2019-03-21T07:52:20.629Z,49.40
2019-03-21T07:53:22.117Z,44.50
2019-03-21T07:54:20.604Z,52.30
2019-03-21T07:55:20.582Z,48.40
2019-03-21T07:56:20.579Z,48.60
2019-03-21T07:57:20.562Z,50.20
2019-03-21T07:58:20.569Z,54.00
2019-03-21T07:59:20.565Z,49.80
2019-03-21T08:00:20.539Z,49.10
2019-03-21T08:01:20.529Z,49.80
2019-03-21T08:02:20.521Z,55.20
2019-03-21T08:03:20.519Z,56.20
2019-03-21T08:04:20.522Z,54.70
2019-03-21T08:05:20.479Z,57.40
2019-03-21T08:06:20.481Z,58.20
2019-03-21T08:07:20.463Z,58.20
2019-03-21T08:08:20.459Z,58.90
2019-03-21T08:09:20.426Z,57.40
2019-03-21T08:10:20.447Z,57.20
2019-03-21T08:11:20.419Z,54.00
2019-03-21T08:12:20.406Z,53.50
2019-03-21T08:13:20.422Z,56.30
2019-03-21T08:14:20.379Z,57.70
2019-03-21T08:15:20.379Z,59.50
2019-03-21T08:16:20.372Z,56.70
2019-03-21T08:17:20.339Z,60.50
2019-03-21T08:18:20.360Z,52.30
2019-03-21T08:19:20.325Z,54.80
2019-03-21T08:20:20.310Z,56.20
2019-03-21T08:21:20.311Z,56.40
2019-03-21T08:22:20.289Z,50.70
2019-03-21T08:23:20.314Z,52.20
2019-03-21T08:24:20.260Z,60.70
2019-03-21T08:25:20.265Z,57.50
2019-03-21T08:26:20.252Z,54.20
2019-03-21T08:27:20.246Z,56.10
2019-03-21T08:28:20.235Z,55.20
2019-03-21T08:29:20.206Z,51.70
2019-03-21T08:30:20.231Z,52.10
2019-03-21T08:31:20.273Z,52.40
2019-03-21T08:32:20.183Z,56.90
2019-03-21T08:33:20.198Z,55.30
2019-03-21T08:34:20.171Z,57.90
2019-03-21T08:35:20.147Z,52.80
2019-03-21T08:36:20.132Z,58.70
2019-03-21T08:37:20.139Z,53.20
2019-03-21T08:38:20.123Z,52.40
2019-03-21T08:39:20.121Z,52.40
2019-03-21T08:40:20.084Z,52.00
2019-03-21T08:41:20.070Z,53.50
2019-03-21T08:42:20.071Z,51.40
2019-03-21T08:43:20.079Z,52.30
2019-03-21T08:44:20.071Z,50.80
2019-03-21T08:45:20.032Z,49.10
2019-03-21T08:46:20.031Z,48.40
2019-03-21T08:47:20.012Z,52.10
2019-03-21T08:48:20.006Z,51.40
2019-03-21T08:49:20.025Z,51.80
2019-03-21T08:50:19.987Z,53.60
2019-03-21T08:51:19.976Z,50.20
2019-03-21T08:52:19.978Z,51.60
2019-03-21T08:53:19.955Z,53.20
2019-03-21T08:54:19.941Z,51.10
2019-03-21T08:55:19.920Z,51.60
2019-03-21T08:56:19.930Z,56.40
2019-03-21T08:57:19.932Z,50.80
2019-03-21T08:58:19.895Z,56.80
2019-03-21T08:59:19.897Z,48.00
2019-03-21T09:00:19.880Z,48.70
2019-03-21T09:01:19.873Z,51.10
2019-03-21T09:02:19.858Z,48.80
2019-03-21T09:03:19.866Z,49.70
2019-03-21T09:04:19.837Z,48.70
2019-03-21T09:05:19.811Z,51.80
2019-03-21T09:06:19.804Z,50.40
2019-03-21T09:07:19.837Z,43.40
2019-03-21T09:08:19.807Z,48.50
2019-03-21T09:09:19.793Z,49.40
2019-03-21T09:10:19.761Z,51.00
2019-03-21T09:11:19.773Z,48.60
2019-03-21T09:12:19.739Z,43.50
2019-03-21T09:13:19.754Z,42.90
2019-03-21T09:14:19.738Z,44.40
2019-03-21T09:15:19.694Z,42.40
2019-03-21T09:16:19.693Z,46.60
2019-03-21T09:17:19.684Z,43.40
2019-03-21T09:18:19.703Z,43.10
2019-03-21T09:19:19.696Z,46.20
2019-03-21T09:20:19.683Z,45.30
2019-03-21T09:21:20.164Z,42.00
2019-03-21T09:22:19.660Z,37.50
2019-03-21T09:23:19.622Z,36.90
2019-03-21T09:24:19.667Z,38.70
2019-03-21T09:25:19.587Z,36.50
2019-03-21T09:26:19.573Z,32.70
2019-03-21T09:27:19.573Z,34.10
2019-03-21T09:28:19.561Z,33.00
2019-03-21T09:29:19.564Z,38.60
2019-03-21T09:30:19.565Z,36.00
2019-03-21T09:31:19.539Z,35.80
2019-03-21T09:32:19.615Z,36.70
2019-03-21T09:33:19.502Z,42.10
2019-03-21T09:34:19.509Z,41.30
2019-03-21T09:35:19.488Z,39.00
2019-03-21T09:36:19.477Z,43.40
2019-03-21T09:37:19.470Z,45.70
2019-03-21T09:38:19.452Z,44.50
2019-03-21T09:39:19.435Z,43.60
2019-03-21T09:40:19.433Z,41.50
2019-03-21T09:41:19.409Z,38.20
2019-03-21T09:42:19.405Z,37.60
2019-03-21T09:43:19.415Z,38.90
2019-03-21T09:44:19.375Z,36.60
2019-03-21T09:45:19.387Z,37.80
2019-03-21T09:46:19.370Z,38.80
2019-03-21T09:47:19.355Z,37.30
2019-03-21T09:48:19.333Z,38.00
2019-03-21T09:49:19.323Z,36.70
2019-03-21T09:50:19.335Z,36.60
2019-03-21T09:51:30.313Z,33.80
2019-03-21T09:52:20.309Z,31.70
2019-03-21T09:53:19.282Z,34.90
2019-03-21T09:54:19.263Z,33.90
2019-03-21T09:55:19.270Z,33.60
2019-03-21T09:56:19.247Z,40.10
2019-03-21T09:57:19.241Z,34.00
2019-03-21T09:58:19.235Z,33.60
2019-03-21T09:59:19.216Z,30.70
2019-03-21T10:00:19.275Z,31.10
2019-03-21T10:01:19.216Z,32.40
2019-03-21T10:02:19.178Z,33.10
2019-03-21T10:03:19.183Z,32.90
2019-03-21T10:04:19.163Z,37.80
2019-03-21T10:05:19.164Z,35.90
2019-03-21T10:06:19.144Z,36.10
2019-03-21T10:07:19.147Z,32.40
2019-03-21T10:08:19.125Z,34.50
2019-03-21T10:09:19.109Z,34.40
2019-03-21T10:10:19.129Z,34.00
2019-03-21T10:11:19.100Z,34.10
2019-03-21T10:12:19.078Z,35.30
2019-03-21T10:13:19.050Z,40.00
2019-03-21T10:14:19.056Z,38.30
2019-03-21T10:15:19.076Z,38.80
2019-03-21T10:16:19.055Z,36.10
2019-03-21T10:17:19.012Z,35.70
2019-03-21T10:18:19.011Z,34.30
2019-03-21T10:19:19.003Z,37.50
2019-03-21T10:20:18.998Z,34.90
2019-03-21T10:21:18.984Z,34.00
2019-03-21T10:22:18.950Z,35.70
2019-03-21T10:23:18.954Z,37.10
2019-03-21T10:24:18.934Z,34.10
2019-03-21T10:25:18.920Z,33.70
2019-03-21T10:26:18.965Z,31.40
2019-03-21T10:27:18.907Z,34.70
2019-03-21T10:28:18.893Z,33.10
2019-03-21T10:29:18.878Z,35.50
2019-03-21T10:30:18.866Z,31.60
2019-03-21T10:31:18.905Z,32.70
2019-03-21T10:32:18.856Z,31.30
2019-03-21T10:33:18.850Z,34.00
2019-03-21T10:34:18.820Z,29.30
2019-03-21T10:35:18.822Z,31.70
2019-03-21T10:36:18.822Z,31.40
2019-03-21T10:37:18.851Z,32.40
2019-03-21T10:38:18.786Z,32.30
2019-03-21T10:39:18.811Z,31.40
2019-03-21T10:40:18.783Z,33.80
2019-03-21T10:41:18.761Z,32.90
2019-03-21T10:42:18.749Z,30.00
2019-03-21T10:43:18.732Z,30.50
2019-03-21T10:44:18.709Z,30.40
2019-03-21T10:45:18.703Z,32.00
2019-03-21T10:46:18.707Z,29.20
2019-03-21T10:47:18.685Z,30.20
2019-03-21T10:48:18.676Z,30.00
2019-03-21T10:49:18.653Z,31.60
2019-03-21T10:50:18.659Z,32.20
2019-03-21T10:51:18.658Z,33.00
2019-03-21T10:52:18.632Z,33.40
2019-03-21T10:53:18.607Z,32.50
2019-03-21T10:54:18.620Z,32.00
2019-03-21T10:55:18.588Z,30.80
2019-03-21T10:56:18.605Z,30.60
2019-03-21T10:57:18.577Z,30.50
2019-03-21T10:58:18.580Z,29.00
2019-03-21T10:59:18.565Z,30.50
2019-03-21T11:00:18.535Z,31.70
2019-03-21T11:01:18.562Z,31.30
2019-03-21T11:02:18.521Z,32.90
2019-03-21T11:03:18.496Z,29.70
2019-03-21T11:04:18.483Z,30.10
2019-03-21T11:05:18.483Z,31.20
2019-03-21T11:06:18.473Z,30.20
2019-03-21T11:07:18.473Z,29.30
2019-03-21T11:08:18.448Z,30.40
2019-03-21T11:09:18.439Z,30.20
2019-03-21T11:10:18.430Z,28.60
2019-03-21T11:11:18.414Z,32.50
2019-03-21T11:12:18.439Z,31.30
2019-03-21T11:13:18.390Z,29.40
2019-03-21T11:14:18.385Z,33.00
2019-03-21T11:15:18.374Z,30.00
2019-03-21T11:16:18.365Z,34.60
2019-03-21T11:17:18.379Z,29.20
2019-03-21T11:18:18.339Z,28.70
2019-03-21T11:19:18.357Z,29.60
2019-03-21T11:20:18.332Z,31.60
2019-03-21T11:21:18.317Z,30.50
2019-03-21T11:22:18.318Z,30.60
2019-03-21T11:23:18.360Z,30.00
2019-03-21T11:24:18.268Z,33.60
2019-03-21T11:25:18.278Z,28.60
2019-03-21T11:26:18.252Z,31.90
2019-03-21T11:27:18.245Z,31.50
2019-03-21T11:28:18.216Z,32.30
2019-03-21T11:29:18.216Z,30.40
2019-03-21T11:30:18.208Z,30.90
2019-03-21T11:31:18.191Z,31.60
2019-03-21T11:32:18.202Z,29.80
2019-03-21T11:33:18.174Z,35.50
2019-03-21T11:34:18.159Z,30.80
2019-03-21T11:35:18.166Z,34.10
2019-03-21T11:36:18.147Z,31.50
2019-03-21T11:37:18.168Z,32.70
2019-03-21T11:38:18.116Z,31.70
2019-03-21T11:39:19.094Z,31.00
2019-03-21T11:40:18.097Z,30.40
2019-03-21T11:41:18.078Z,32.70
2019-03-21T11:42:18.086Z,28.30
2019-03-21T11:43:18.085Z,31.60
2019-03-21T11:44:18.068Z,32.60
2019-03-21T11:45:18.040Z,35.90
2019-03-21T11:46:18.035Z,32.30
2019-03-21T11:47:18.030Z,32.00
2019-03-21T11:48:18.087Z,31.40
2019-03-21T11:49:17.995Z,33.50
2019-03-21T11:50:17.997Z,28.50
2019-03-21T11:51:17.982Z,31.70
2019-03-21T11:52:18.723Z,29.60
2019-03-21T11:53:17.952Z,32.10
2019-03-21T11:54:17.952Z,31.40
2019-03-21T11:55:17.927Z,32.50
2019-03-21T11:56:17.930Z,32.40
2019-03-21T11:57:17.924Z,31.00
2019-03-21T11:58:17.973Z,29.80
2019-03-21T11:59:17.893Z,31.50
2019-03-21T12:00:17.871Z,34.30
2019-03-21T12:01:17.865Z,32.40
2019-03-21T12:02:26.577Z,33.10
2019-03-21T12:03:18.838Z,33.00
2019-03-21T12:04:17.829Z,29.80
2019-03-21T12:05:17.816Z,29.60
2019-03-21T12:06:17.804Z,32.10
2019-03-21T12:07:17.807Z,35.10
2019-03-21T12:08:17.792Z,32.10
2019-03-21T12:09:17.769Z,29.90
2019-03-21T12:10:17.764Z,32.40
2019-03-21T12:11:17.743Z,31.80
2019-03-21T12:12:17.736Z,28.90
2019-03-21T12:13:17.734Z,27.70
2019-03-21T12:14:17.712Z,29.00
2019-03-21T12:15:17.717Z,30.40
2019-03-21T12:16:17.706Z,28.40
2019-03-21T12:17:17.691Z,30.00
2019-03-21T12:18:17.695Z,28.70
2019-03-21T12:19:17.666Z,29.10
2019-03-21T12:20:17.648Z,28.40
2019-03-21T12:21:17.650Z,29.60
2019-03-21T12:22:29.252Z,29.90
2019-03-21T12:23:18.641Z,29.50
2019-03-21T12:24:17.607Z,26.70
2019-03-21T12:25:17.594Z,29.20
2019-03-21T12:26:17.591Z,26.00
2019-03-21T12:27:17.648Z,26.20
2019-03-21T12:28:17.574Z,27.70
2019-03-21T12:29:17.553Z,26.60
2019-03-21T12:30:17.557Z,26.40
2019-03-21T12:31:17.538Z,27.10
2019-03-21T12:32:17.553Z,27.30
2019-03-21T12:33:17.557Z,27.80
2019-03-21T12:34:17.494Z,26.50
2019-03-21T12:35:17.504Z,28.60
2019-03-21T12:36:17.494Z,27.10
2019-03-21T12:37:17.454Z,31.80
2019-03-21T12:38:17.463Z,30.00
2019-03-21T12:39:17.436Z,27.80
2019-03-21T12:40:17.426Z,27.50
2019-03-21T12:41:17.411Z,29.30
2019-03-21T12:42:17.417Z,28.10
2019-03-21T12:43:17.441Z,31.20
2019-03-21T12:44:17.400Z,29.10
2019-03-21T12:45:17.385Z,29.00
2019-03-21T12:46:17.368Z,31.10
2019-03-21T12:47:17.350Z,30.40
2019-03-21T12:48:17.367Z,31.40
2019-03-21T12:49:17.363Z,30.10
2019-03-21T12:50:17.325Z,32.90
2019-03-21T12:51:17.315Z,33.10
2019-03-21T12:52:17.300Z,33.70